Terminal Aerodrome Forecast
Issued by NWS

Home | Current Version | Previous Version | Text Only | Print | Product List | Glossary On
Versions: 1 2 3 4 5 6 7 8 9 10 11 12 13 14 15 16 17 18 19 20 21 22 23 24 25 26 27 28 29 30 31 32 33 34 35 36
519
FTUS45 KBOU 182326
TAFAPA
TAF
KAPA 182326Z 1900/1924 VRB03KT P6SM FEW100 SCT220
     FM190100 18007KT P6SM SCT200
     FM190800 23011KT P6SM FEW250
     FM191100 18008KT P6SM FEW250
     FM191500 21008KT P6SM SCT250
     FM192000 12008KT P6SM SCT120 SCT200=

USA.gov is the U.S. government's official web portal to all federal, state and local government web resources and services.